sensor_id;sensor_type;location;lat;lon;timestamp;temperature;humidity
7530;DHT22;3806;52.270;10.544;2023-11-19T00:00:10;6.80;99.90
7530;DHT22;3806;52.270;10.544;2023-11-19T00:02:41;6.80;99.90
7530;DHT22;3806;52.270;10.544;2023-11-19T00:05:07;6.90;99.90
7530;DHT22;3806;52.270;10.544;2023-11-19T00:07:37;6.90;99.90
7530;DHT22;3806;52.270;10.544;2023-11-19T00:10:13;6.90;99.90
7530;DHT22;3806;52.270;10.544;2023-11-19T00:12:43;6.90;99.90
7530;DHT22;3806;52.270;10.544;2023-11-19T00:15:10;7.00;99.90
7530;DHT22;3806;52.270;10.544;2023-11-19T00:17:37;7.00;99.90
7530;DHT22;3806;52.270;10.544;2023-11-19T00:20:06;7.00;99.90
7530;DHT22;3806;52.270;10.544;2023-11-19T00:22:32;7.00;99.90
7530;DHT22;3806;52.270;10.544;2023-11-19T00:24:58;6.90;99.90
7530;DHT22;3806;52.270;10.544;2023-11-19T00:27:24;7.00;99.90
7530;DHT22;3806;52.270;10.544;2023-11-19T00:29:50;7.00;99.90
7530;DHT22;3806;52.270;10.544;2023-11-19T00:32:15;7.00;99.90
7530;DHT22;3806;52.270;10.544;2023-11-19T00:34:44;7.10;99.90
7530;DHT22;3806;52.270;10.544;2023-11-19T00:37:09;7.10;99.90
7530;DHT22;3806;52.270;10.544;2023-11-19T00:39:35;7.10;99.90
7530;DHT22;3806;52.270;10.544;2023-11-19T00:42:00;7.10;99.90
7530;DHT22;3806;52.270;10.544;2023-11-19T00:44:26;7.10;99.90
7530;DHT22;3806;52.270;10.544;2023-11-19T00:46:51;7.20;99.90
7530;DHT22;3806;52.270;10.544;2023-11-19T00:49:17;7.20;99.90
7530;DHT22;3806;52.270;10.544;2023-11-19T00:51:42;7.30;99.90
7530;DHT22;3806;52.270;10.544;2023-11-19T00:54:08;7.30;99.90
7530;DHT22;3806;52.270;10.544;2023-11-19T00:56:33;7.20;99.90
7530;DHT22;3806;52.270;10.544;2023-11-19T00:58:59;7.20;99.90
7530;DHT22;3806;52.270;10.544;2023-11-19T01:01:25;7.30;99.90
7530;DHT22;3806;52.270;10.544;2023-11-19T01:03:51;7.30;99.90
7530;DHT22;3806;52.270;10.544;2023-11-19T01:06:30;7.40;99.90
7530;DHT22;3806;52.270;10.544;2023-11-19T01:08:56;7.40;99.90
7530;DHT22;3806;52.270;10.544;2023-11-19T01:11:25;7.40;99.90
7530;DHT22;3806;52.270;10.544;2023-11-19T01:13:52;7.40;99.90
7530;DHT22;3806;52.270;10.544;2023-11-19T01:16:18;7.50;99.90
7530;DHT22;3806;52.270;10.544;2023-11-19T01:18:44;7.50;99.90
7530;DHT22;3806;52.270;10.544;2023-11-19T01:21:10;7.50;99.90
7530;DHT22;3806;52.270;10.544;2023-11-19T01:23:36;7.50;99.90
7530;DHT22;3806;52.270;10.544;2023-11-19T01:26:02;7.50;99.90
7530;DHT22;3806;52.270;10.544;2023-11-19T01:28:28;7.60;99.90
7530;DHT22;3806;52.270;10.544;2023-11-19T01:30:53;7.60;99.90
7530;DHT22;3806;52.270;10.544;2023-11-19T01:33:19;7.60;99.90
7530;DHT22;3806;52.270;10.544;2023-11-19T01:35:44;7.60;99.90
7530;DHT22;3806;52.270;10.544;2023-11-19T01:38:10;7.70;99.90
7530;DHT22;3806;52.270;10.544;2023-11-19T01:40:36;7.70;99.90
7530;DHT22;3806;52.270;10.544;2023-11-19T01:43:03;7.70;99.90
7530;DHT22;3806;52.270;10.544;2023-11-19T01:45:30;7.70;99.90
7530;DHT22;3806;52.270;10.544;2023-11-19T01:47:57;7.80;99.90
7530;DHT22;3806;52.270;10.544;2023-11-19T01:50:24;7.80;99.90
7530;DHT22;3806;52.270;10.544;2023-11-19T01:52:52;7.80;99.90
7530;DHT22;3806;52.270;10.544;2023-11-19T01:55:20;7.80;99.90
7530;DHT22;3806;52.270;10.544;2023-11-19T01:57:46;7.80;99.90
7530;DHT22;3806;52.270;10.544;2023-11-19T02:00:12;7.80;99.90
7530;DHT22;3806;52.270;10.544;2023-11-19T02:02:40;7.90;99.90
7530;DHT22;3806;52.270;10.544;2023-11-19T02:05:06;7.90;99.90
7530;DHT22;3806;52.270;10.544;2023-11-19T02:07:32;7.80;99.90
7530;DHT22;3806;52.270;10.544;2023-11-19T02:09:57;7.80;99.90
7530;DHT22;3806;52.270;10.544;2023-11-19T02:12:26;7.90;99.90
7530;DHT22;3806;52.270;10.544;2023-11-19T02:14:54;8.00;99.90
7530;DHT22;3806;52.270;10.544;2023-11-19T02:17:30;8.00;99.90
7530;DHT22;3806;52.270;10.544;2023-11-19T02:19:59;8.10;99.90
7530;DHT22;3806;52.270;10.544;2023-11-19T02:22:25;8.10;99.90
7530;DHT22;3806;52.270;10.544;2023-11-19T02:24:59;8.20;99.90
7530;DHT22;3806;52.270;10.544;2023-11-19T02:30:04;8.30;99.90
7530;DHT22;3806;52.270;10.544;2023-11-19T02:32:34;8.30;99.90
7530;DHT22;3806;52.270;10.544;2023-11-19T02:34:59;8.30;99.90
7530;DHT22;3806;52.270;10.544;2023-11-19T02:37:25;8.40;99.90
7530;DHT22;3806;52.270;10.544;2023-11-19T02:39:51;8.50;99.90
7530;DHT22;3806;52.270;10.544;2023-11-19T02:42:16;8.50;99.90
7530;DHT22;3806;52.270;10.544;2023-11-19T02:44:45;8.60;99.90
7530;DHT22;3806;52.270;10.544;2023-11-19T02:47:11;8.60;99.90
7530;DHT22;3806;52.270;10.544;2023-11-19T02:49:37;8.60;99.90
7530;DHT22;3806;52.270;10.544;2023-11-19T02:52:03;8.70;99.90
7530;DHT22;3806;52.270;10.544;2023-11-19T02:54:31;8.70;99.90
7530;DHT22;3806;52.270;10.544;2023-11-19T02:57:00;8.70;99.90
7530;DHT22;3806;52.270;10.544;2023-11-19T02:59:27;8.80;99.90
7530;DHT22;3806;52.270;10.544;2023-11-19T03:01:53;8.90;99.90
7530;DHT22;3806;52.270;10.544;2023-11-19T03:04:19;8.90;99.90
7530;DHT22;3806;52.270;10.544;2023-11-19T03:06:48;8.90;99.90
7530;DHT22;3806;52.270;10.544;2023-11-19T03:09:14;8.90;99.90
7530;DHT22;3806;52.270;10.544;2023-11-19T03:11:40;8.90;99.90
7530;DHT22;3806;52.270;10.544;2023-11-19T03:14:05;8.90;99.90
7530;DHT22;3806;52.270;10.544;2023-11-19T03:16:31;9.00;99.90
7530;DHT22;3806;52.270;10.544;2023-11-19T03:18:56;9.00;99.90
7530;DHT22;3806;52.270;10.544;2023-11-19T03:21:29;9.00;99.90
7530;DHT22;3806;52.270;10.544;2023-11-19T03:23:54;9.00;99.90
7530;DHT22;3806;52.270;10.544;2023-11-19T03:26:20;9.00;99.90
7530;DHT22;3806;52.270;10.544;2023-11-19T03:28:47;9.10;99.90
7530;DHT22;3806;52.270;10.544;2023-11-19T03:31:13;9.10;99.90
7530;DHT22;3806;52.270;10.544;2023-11-19T03:33:38;9.00;99.90
7530;DHT22;3806;52.270;10.544;2023-11-19T03:36:04;9.20;99.90
7530;DHT22;3806;52.270;10.544;2023-11-19T03:38:30;9.10;99.90
7530;DHT22;3806;52.270;10.544;2023-11-19T03:40:56;9.20;99.90
7530;DHT22;3806;52.270;10.544;2023-11-19T03:43:21;9.10;99.90
7530;DHT22;3806;52.270;10.544;2023-11-19T03:45:47;9.10;99.90
7530;DHT22;3806;52.270;10.544;2023-11-19T03:48:13;9.20;99.90
7530;DHT22;3806;52.270;10.544;2023-11-19T03:50:41;9.20;99.90
7530;DHT22;3806;52.270;10.544;2023-11-19T03:53:07;9.20;99.90
7530;DHT22;3806;52.270;10.544;2023-11-19T03:55:32;9.20;99.90
7530;DHT22;3806;52.270;10.544;2023-11-19T03:57:58;9.20;99.90
7530;DHT22;3806;52.270;10.544;2023-11-19T04:00:23;9.30;99.90
7530;DHT22;3806;52.270;10.544;2023-11-19T04:02:49;9.30;99.90
7530;DHT22;3806;52.270;10.544;2023-11-19T04:05:14;9.40;99.90
7530;DHT22;3806;52.270;10.544;2023-11-19T04:07:40;9.40;99.90
7530;DHT22;3806;52.270;10.544;2023-11-19T04:10:06;9.40;99.90
7530;DHT22;3806;52.270;10.544;2023-11-19T04:12:32;9.40;99.90
7530;DHT22;3806;52.270;10.544;2023-11-19T04:14:57;9.40;99.90
7530;DHT22;3806;52.270;10.544;2023-11-19T04:17:23;9.40;99.90
7530;DHT22;3806;52.270;10.544;2023-11-19T04:19:48;9.40;99.90
7530;DHT22;3806;52.270;10.544;2023-11-19T04:22:14;9.50;99.90
7530;DHT22;3806;52.270;10.544;2023-11-19T04:24:39;9.50;99.90
7530;DHT22;3806;52.270;10.544;2023-11-19T04:27:06;9.50;99.90
7530;DHT22;3806;52.270;10.544;2023-11-19T04:29:31;9.60;99.90
7530;DHT22;3806;52.270;10.544;2023-11-19T04:31:57;9.60;99.90
7530;DHT22;3806;52.270;10.544;2023-11-19T04:34:23;9.60;99.90
7530;DHT22;3806;52.270;10.544;2023-11-19T04:36:49;9.60;99.90
7530;DHT22;3806;52.270;10.544;2023-11-19T04:39:15;9.60;99.90
7530;DHT22;3806;52.270;10.544;2023-11-19T04:41:51;9.70;99.90
7530;DHT22;3806;52.270;10.544;2023-11-19T04:44:19;9.70;99.90
7530;DHT22;3806;52.270;10.544;2023-11-19T04:46:45;9.70;99.90
7530;DHT22;3806;52.270;10.544;2023-11-19T04:49:12;9.70;99.90
7530;DHT22;3806;52.270;10.544;2023-11-19T04:51:42;9.80;99.90
7530;DHT22;3806;52.270;10.544;2023-11-19T04:54:08;9.80;99.90
7530;DHT22;3806;52.270;10.544;2023-11-19T04:56:35;9.80;99.90
7530;DHT22;3806;52.270;10.544;2023-11-19T04:59:02;9.80;99.90
7530;DHT22;3806;52.270;10.544;2023-11-19T05:01:28;9.80;99.90
7530;DHT22;3806;52.270;10.544;2023-11-19T05:03:53;9.90;99.90
7530;DHT22;3806;52.270;10.544;2023-11-19T05:06:19;9.90;99.90
7530;DHT22;3806;52.270;10.544;2023-11-19T05:08:45;9.90;99.90
7530;DHT22;3806;52.270;10.544;2023-11-19T05:11:11;9.90;99.90
7530;DHT22;3806;52.270;10.544;2023-11-19T05:13:39;10.00;99.90
7530;DHT22;3806;52.270;10.544;2023-11-19T05:16:04;10.00;99.90
7530;DHT22;3806;52.270;10.544;2023-11-19T05:18:30;10.00;99.90
7530;DHT22;3806;52.270;10.544;2023-11-19T05:20:56;10.00;99.90
7530;DHT22;3806;52.270;10.544;2023-11-19T05:23:21;10.00;99.90
7530;DHT22;3806;52.270;10.544;2023-11-19T05:25:47;10.00;99.90
7530;DHT22;3806;52.270;10.544;2023-11-19T05:28:13;10.00;99.90
7530;DHT22;3806;52.270;10.544;2023-11-19T05:30:39;10.00;99.90
7530;DHT22;3806;52.270;10.544;2023-11-19T05:33:05;10.10;99.90
7530;DHT22;3806;52.270;10.544;2023-11-19T05:35:32;10.00;99.90
7530;DHT22;3806;52.270;10.544;2023-11-19T05:37:57;10.00;99.90
7530;DHT22;3806;52.270;10.544;2023-11-19T05:40:23;10.00;99.90
7530;DHT22;3806;52.270;10.544;2023-11-19T05:42:49;10.00;99.90
7530;DHT22;3806;52.270;10.544;2023-11-19T05:45:14;10.10;99.90
7530;DHT22;3806;52.270;10.544;2023-11-19T05:47:40;10.10;99.90
7530;DHT22;3806;52.270;10.544;2023-11-19T05:50:06;10.10;99.90
7530;DHT22;3806;52.270;10.544;2023-11-19T05:52:32;10.10;99.90
7530;DHT22;3806;52.270;10.544;2023-11-19T05:55:01;10.10;99.90
7530;DHT22;3806;52.270;10.544;2023-11-19T05:57:35;10.10;99.90
7530;DHT22;3806;52.270;10.544;2023-11-19T06:00:00;10.10;99.90
7530;DHT22;3806;52.270;10.544;2023-11-19T06:02:26;10.10;99.90
7530;DHT22;3806;52.270;10.544;2023-11-19T06:04:53;10.10;99.90
7530;DHT22;3806;52.270;10.544;2023-11-19T06:07:18;10.10;99.90
7530;DHT22;3806;52.270;10.544;2023-11-19T06:09:45;10.00;99.90
7530;DHT22;3806;52.270;10.544;2023-11-19T06:12:10;10.00;99.90
7530;DHT22;3806;52.270;10.544;2023-11-19T06:14:36;10.00;99.90
7530;DHT22;3806;52.270;10.544;2023-11-19T06:17:01;10.00;99.90
7530;DHT22;3806;52.270;10.544;2023-11-19T06:19:27;10.10;99.90
7530;DHT22;3806;52.270;10.544;2023-11-19T06:21:53;10.00;99.90
7530;DHT22;3806;52.270;10.544;2023-11-19T06:24:19;10.10;99.90
7530;DHT22;3806;52.270;10.544;2023-11-19T06:26:44;10.10;99.90
7530;DHT22;3806;52.270;10.544;2023-11-19T06:29:10;10.10;99.90
7530;DHT22;3806;52.270;10.544;2023-11-19T06:31:35;10.10;99.90
7530;DHT22;3806;52.270;10.544;2023-11-19T06:34:02;10.20;99.90
7530;DHT22;3806;52.270;10.544;2023-11-19T06:36:27;10.20;99.90
7530;DHT22;3806;52.270;10.544;2023-11-19T06:38:53;10.20;99.90
7530;DHT22;3806;52.270;10.544;2023-11-19T06:41:18;10.30;99.90
7530;DHT22;3806;52.270;10.544;2023-11-19T06:43:44;10.30;99.90
7530;DHT22;3806;52.270;10.544;2023-11-19T06:46:16;10.30;99.90
7530;DHT22;3806;52.270;10.544;2023-11-19T06:48:42;10.30;99.90
7530;DHT22;3806;52.270;10.544;2023-11-19T06:51:09;10.30;99.90
7530;DHT22;3806;52.270;10.544;2023-11-19T06:53:35;10.40;99.90
7530;DHT22;3806;52.270;10.544;2023-11-19T06:56:01;10.40;99.90
7530;DHT22;3806;52.270;10.544;2023-11-19T06:58:30;10.40;99.90
7530;DHT22;3806;52.270;10.544;2023-11-19T07:00:56;10.40;99.90
7530;DHT22;3806;52.270;10.544;2023-11-19T07:03:22;10.40;99.90
7530;DHT22;3806;52.270;10.544;2023-11-19T07:05:47;10.50;99.90
7530;DHT22;3806;52.270;10.544;2023-11-19T07:08:14;10.50;99.90
7530;DHT22;3806;52.270;10.544;2023-11-19T07:10:39;10.50;99.90
7530;DHT22;3806;52.270;10.544;2023-11-19T07:13:05;10.50;99.90
7530;DHT22;3806;52.270;10.544;2023-11-19T07:15:31;10.60;99.90
7530;DHT22;3806;52.270;10.544;2023-11-19T07:17:58;10.60;99.90
7530;DHT22;3806;52.270;10.544;2023-11-19T07:20:24;10.60;99.90
7530;DHT22;3806;52.270;10.544;2023-11-19T07:22:52;10.60;99.90
7530;DHT22;3806;52.270;10.544;2023-11-19T07:25:17;10.70;99.90
7530;DHT22;3806;52.270;10.544;2023-11-19T07:27:43;10.70;99.90
7530;DHT22;3806;52.270;10.544;2023-11-19T07:30:09;10.70;99.90
7530;DHT22;3806;52.270;10.544;2023-11-19T07:32:34;10.70;99.90
7530;DHT22;3806;52.270;10.544;2023-11-19T07:35:00;10.80;99.90
7530;DHT22;3806;52.270;10.544;2023-11-19T07:37:26;10.80;99.90
7530;DHT22;3806;52.270;10.544;2023-11-19T07:39:51;10.80;99.90
7530;DHT22;3806;52.270;10.544;2023-11-19T07:42:17;10.80;99.90
7530;DHT22;3806;52.270;10.544;2023-11-19T07:44:45;10.90;99.90
7530;DHT22;3806;52.270;10.544;2023-11-19T07:47:11;10.90;99.90
7530;DHT22;3806;52.270;10.544;2023-11-19T07:49:38;11.00;99.90
7530;DHT22;3806;52.270;10.544;2023-11-19T07:52:04;11.00;99.90
7530;DHT22;3806;52.270;10.544;2023-11-19T07:54:29;11.00;99.90
7530;DHT22;3806;52.270;10.544;2023-11-19T07:56:55;11.10;99.90
7530;DHT22;3806;52.270;10.544;2023-11-19T07:59:21;11.30;99.90
7530;DHT22;3806;52.270;10.544;2023-11-19T08:01:46;11.50;99.90
7530;DHT22;3806;52.270;10.544;2023-11-19T08:04:12;11.70;99.90
7530;DHT22;3806;52.270;10.544;2023-11-19T08:06:37;12.20;99.90
7530;DHT22;3806;52.270;10.544;2023-11-19T08:09:03;13.00;99.90
7530;DHT22;3806;52.270;10.544;2023-11-19T08:11:28;13.80;99.90
7530;DHT22;3806;52.270;10.544;2023-11-19T08:13:54;14.70;99.90
7530;DHT22;3806;52.270;10.544;2023-11-19T08:16:19;15.30;99.90
7530;DHT22;3806;52.270;10.544;2023-11-19T08:18:45;15.90;99.90
7530;DHT22;3806;52.270;10.544;2023-11-19T08:21:11;16.60;99.90
7530;DHT22;3806;52.270;10.544;2023-11-19T08:23:36;17.10;99.90
7530;DHT22;3806;52.270;10.544;2023-11-19T08:26:03;17.20;99.90
7530;DHT22;3806;52.270;10.544;2023-11-19T08:28:29;17.20;99.90
7530;DHT22;3806;52.270;10.544;2023-11-19T08:30:56;17.00;99.90
7530;DHT22;3806;52.270;10.544;2023-11-19T08:33:22;17.00;99.90
7530;DHT22;3806;52.270;10.544;2023-11-19T08:35:48;17.00;99.50
7530;DHT22;3806;52.270;10.544;2023-11-19T08:38:13;16.80;99.50
7530;DHT22;3806;52.270;10.544;2023-11-19T08:40:39;16.50;99.90
7530;DHT22;3806;52.270;10.544;2023-11-19T08:43:04;16.30;99.90
7530;DHT22;3806;52.270;10.544;2023-11-19T08:45:30;16.00;99.90
7530;DHT22;3806;52.270;10.544;2023-11-19T08:47:57;15.90;99.90
7530;DHT22;3806;52.270;10.544;2023-11-19T08:50:22;16.20;99.90
7530;DHT22;3806;52.270;10.544;2023-11-19T08:52:48;16.40;99.90
7530;DHT22;3806;52.270;10.544;2023-11-19T08:55:13;16.70;99.70
7530;DHT22;3806;52.270;10.544;2023-11-19T08:57:39;17.10;98.80
7530;DHT22;3806;52.270;10.544;2023-11-19T09:00:05;17.40;98.20
7530;DHT22;3806;52.270;10.544;2023-11-19T09:02:35;17.70;97.30
7530;DHT22;3806;52.270;10.544;2023-11-19T09:05:02;17.60;96.60
7530;DHT22;3806;52.270;10.544;2023-11-19T09:07:28;17.10;96.90
7530;DHT22;3806;52.270;10.544;2023-11-19T09:09:53;16.70;97.60
7530;DHT22;3806;52.270;10.544;2023-11-19T09:12:19;16.30;98.20
7530;DHT22;3806;52.270;10.544;2023-11-19T09:14:44;15.90;98.80
7530;DHT22;3806;52.270;10.544;2023-11-19T09:17:11;15.50;99.60
7530;DHT22;3806;52.270;10.544;2023-11-19T09:19:37;15.20;99.90
7530;DHT22;3806;52.270;10.544;2023-11-19T09:22:02;14.90;99.90
7530;DHT22;3806;52.270;10.544;2023-11-19T09:24:28;14.80;99.90
7530;DHT22;3806;52.270;10.544;2023-11-19T09:26:53;14.80;99.90
7530;DHT22;3806;52.270;10.544;2023-11-19T09:29:20;14.70;99.90
7530;DHT22;3806;52.270;10.544;2023-11-19T09:31:46;14.70;99.90
7530;DHT22;3806;52.270;10.544;2023-11-19T09:34:12;14.60;99.90
7530;DHT22;3806;52.270;10.544;2023-11-19T09:36:37;14.50;99.90
7530;DHT22;3806;52.270;10.544;2023-11-19T09:39:04;14.30;99.90
7530;DHT22;3806;52.270;10.544;2023-11-19T09:41:31;14.40;99.90
7530;DHT22;3806;52.270;10.544;2023-11-19T09:43:57;14.30;99.90
7530;DHT22;3806;52.270;10.544;2023-11-19T09:46:23;14.30;99.90
7530;DHT22;3806;52.270;10.544;2023-11-19T09:48:52;14.40;99.90
7530;DHT22;3806;52.270;10.544;2023-11-19T09:51:20;14.50;99.90
7530;DHT22;3806;52.270;10.544;2023-11-19T09:53:45;14.60;99.90
7530;DHT22;3806;52.270;10.544;2023-11-19T09:56:12;14.60;99.90
7530;DHT22;3806;52.270;10.544;2023-11-19T09:58:38;14.60;99.90
7530;DHT22;3806;52.270;10.544;2023-11-19T10:01:04;14.70;99.90
7530;DHT22;3806;52.270;10.544;2023-11-19T10:03:34;14.80;99.90
7530;DHT22;3806;52.270;10.544;2023-11-19T10:06:03;15.00;99.90
7530;DHT22;3806;52.270;10.544;2023-11-19T10:08:29;15.30;99.90
7530;DHT22;3806;52.270;10.544;2023-11-19T10:10:55;15.50;99.90
7530;DHT22;3806;52.270;10.544;2023-11-19T10:13:26;15.70;99.90
7530;DHT22;3806;52.270;10.544;2023-11-19T10:15:52;15.80;99.80
7530;DHT22;3806;52.270;10.544;2023-11-19T10:18:18;15.90;99.70
7530;DHT22;3806;52.270;10.544;2023-11-19T10:20:44;16.10;99.40
7530;DHT22;3806;52.270;10.544;2023-11-19T10:23:10;16.30;99.10
7530;DHT22;3806;52.270;10.544;2023-11-19T10:25:37;16.30;99.00
7530;DHT22;3806;52.270;10.544;2023-11-19T10:28:03;16.40;98.30
7530;DHT22;3806;52.270;10.544;2023-11-19T10:30:30;16.30;98.20
7530;DHT22;3806;52.270;10.544;2023-11-19T10:33:12;16.20;98.30
7530;DHT22;3806;52.270;10.544;2023-11-19T10:35:56;16.20;98.40
7530;DHT22;3806;52.270;10.544;2023-11-19T10:38:22;16.20;98.30
7530;DHT22;3806;52.270;10.544;2023-11-19T10:40:49;16.10;98.50
7530;DHT22;3806;52.270;10.544;2023-11-19T10:43:16;15.90;98.60
7530;DHT22;3806;52.270;10.544;2023-11-19T10:45:42;15.70;98.90
7530;DHT22;3806;52.270;10.544;2023-11-19T10:48:09;15.40;99.40
7530;DHT22;3806;52.270;10.544;2023-11-19T10:50:36;15.10;99.80
7530;DHT22;3806;52.270;10.544;2023-11-19T10:53:03;15.00;99.90
7530;DHT22;3806;52.270;10.544;2023-11-19T10:55:32;15.00;99.90
7530;DHT22;3806;52.270;10.544;2023-11-19T10:58:07;15.00;99.90
7530;DHT22;3806;52.270;10.544;2023-11-19T11:00:38;15.10;99.90
7530;DHT22;3806;52.270;10.544;2023-11-19T11:03:15;15.20;99.80
7530;DHT22;3806;52.270;10.544;2023-11-19T11:05:41;15.30;99.80
7530;DHT22;3806;52.270;10.544;2023-11-19T11:08:08;15.40;99.80
7530;DHT22;3806;52.270;10.544;2023-11-19T11:10:39;15.50;99.60
7530;DHT22;3806;52.270;10.544;2023-11-19T11:13:08;15.60;99.00
7530;DHT22;3806;52.270;10.544;2023-11-19T11:15:34;15.50;99.00
7530;DHT22;3806;52.270;10.544;2023-11-19T11:18:01;15.50;98.70
7530;DHT22;3806;52.270;10.544;2023-11-19T11:20:31;15.40;98.90
7530;DHT22;3806;52.270;10.544;2023-11-19T11:23:29;15.20;99.00
7530;DHT22;3806;52.270;10.544;2023-11-19T11:28:46;14.90;99.50
7530;DHT22;3806;52.270;10.544;2023-11-19T11:37:30;14.60;99.90
7530;DHT22;3806;52.270;10.544;2023-11-19T11:39:57;14.60;99.90
7530;DHT22;3806;52.270;10.544;2023-11-19T11:45:00;14.50;99.90
7530;DHT22;3806;52.270;10.544;2023-11-19T11:47:25;14.50;99.90
7530;DHT22;3806;52.270;10.544;2023-11-19T11:49:52;14.50;99.90
7530;DHT22;3806;52.270;10.544;2023-11-19T11:52:17;14.50;99.90
7530;DHT22;3806;52.270;10.544;2023-11-19T11:54:44;14.50;99.90
7530;DHT22;3806;52.270;10.544;2023-11-19T11:57:13;14.40;99.90
7530;DHT22;3806;52.270;10.544;2023-11-19T11:59:50;14.50;99.90
7530;DHT22;3806;52.270;10.544;2023-11-19T12:02:20;14.50;99.90
7530;DHT22;3806;52.270;10.544;2023-11-19T12:04:50;14.50;99.90
7530;DHT22;3806;52.270;10.544;2023-11-19T12:07:19;14.50;99.90
7530;DHT22;3806;52.270;10.544;2023-11-19T12:10:05;14.50;99.90
7530;DHT22;3806;52.270;10.544;2023-11-19T12:12:33;14.50;99.90
7530;DHT22;3806;52.270;10.544;2023-11-19T12:20:04;14.50;99.90
7530;DHT22;3806;52.270;10.544;2023-11-19T12:22:31;14.50;99.90
7530;DHT22;3806;52.270;10.544;2023-11-19T12:24:57;14.50;99.90
7530;DHT22;3806;52.270;10.544;2023-11-19T12:27:22;14.50;99.90
7530;DHT22;3806;52.270;10.544;2023-11-19T12:29:48;14.50;99.90
7530;DHT22;3806;52.270;10.544;2023-11-19T12:32:14;14.50;99.90
7530;DHT22;3806;52.270;10.544;2023-11-19T12:34:40;14.50;99.90
7530;DHT22;3806;52.270;10.544;2023-11-19T12:37:05;14.50;99.90
7530;DHT22;3806;52.270;10.544;2023-11-19T12:39:31;14.50;99.90
7530;DHT22;3806;52.270;10.544;2023-11-19T12:41:57;14.50;99.90
7530;DHT22;3806;52.270;10.544;2023-11-19T12:44:25;14.40;99.90
7530;DHT22;3806;52.270;10.544;2023-11-19T12:47:06;14.50;99.90
7530;DHT22;3806;52.270;10.544;2023-11-19T12:49:32;14.40;99.90
7530;DHT22;3806;52.270;10.544;2023-11-19T12:51:58;14.50;99.90
7530;DHT22;3806;52.270;10.544;2023-11-19T12:54:37;14.50;99.90
7530;DHT22;3806;52.270;10.544;2023-11-19T12:57:03;14.40;99.90
7530;DHT22;3806;52.270;10.544;2023-11-19T12:59:30;14.40;99.90
7530;DHT22;3806;52.270;10.544;2023-11-19T13:01:59;14.50;99.90
7530;DHT22;3806;52.270;10.544;2023-11-19T13:04:31;14.60;99.90
7530;DHT22;3806;52.270;10.544;2023-11-19T13:06:58;14.80;99.90
7530;DHT22;3806;52.270;10.544;2023-11-19T13:09:25;14.90;99.90
7530;DHT22;3806;52.270;10.544;2023-11-19T13:11:51;14.90;99.90
7530;DHT22;3806;52.270;10.544;2023-11-19T13:14:18;14.80;99.80
7530;DHT22;3806;52.270;10.544;2023-11-19T13:16:44;14.70;99.90
7530;DHT22;3806;52.270;10.544;2023-11-19T13:19:14;14.50;99.90
7530;DHT22;3806;52.270;10.544;2023-11-19T13:21:39;14.50;99.90
7530;DHT22;3806;52.270;10.544;2023-11-19T13:24:06;14.30;99.90
7530;DHT22;3806;52.270;10.544;2023-11-19T13:26:32;14.20;99.90
7530;DHT22;3806;52.270;10.544;2023-11-19T13:28:57;14.20;99.90
7530;DHT22;3806;52.270;10.544;2023-11-19T13:31:23;14.10;99.90
7530;DHT22;3806;52.270;10.544;2023-11-19T13:33:48;14.00;99.90
7530;DHT22;3806;52.270;10.544;2023-11-19T13:36:14;13.90;99.90
7530;DHT22;3806;52.270;10.544;2023-11-19T13:38:39;14.00;99.90
7530;DHT22;3806;52.270;10.544;2023-11-19T13:41:07;13.90;99.90
7530;DHT22;3806;52.270;10.544;2023-11-19T13:43:35;13.90;99.90
7530;DHT22;3806;52.270;10.544;2023-11-19T13:46:00;13.90;99.90
7530;DHT22;3806;52.270;10.544;2023-11-19T13:48:26;13.90;99.90
7530;DHT22;3806;52.270;10.544;2023-11-19T13:50:52;13.80;99.90
7530;DHT22;3806;52.270;10.544;2023-11-19T13:53:18;13.80;99.90
7530;DHT22;3806;52.270;10.544;2023-11-19T13:55:44;13.80;99.90
7530;DHT22;3806;52.270;10.544;2023-11-19T13:58:10;13.80;99.90
7530;DHT22;3806;52.270;10.544;2023-11-19T14:00:36;13.70;99.90
7530;DHT22;3806;52.270;10.544;2023-11-19T14:03:02;13.70;99.90
7530;DHT22;3806;52.270;10.544;2023-11-19T14:05:28;13.70;99.90
7530;DHT22;3806;52.270;10.544;2023-11-19T14:07:53;13.60;99.90
7530;DHT22;3806;52.270;10.544;2023-11-19T14:10:22;13.60;99.90
7530;DHT22;3806;52.270;10.544;2023-11-19T14:12:48;13.60;99.90
7530;DHT22;3806;52.270;10.544;2023-11-19T14:15:15;13.60;99.90
7530;DHT22;3806;52.270;10.544;2023-11-19T14:17:42;13.60;99.90
7530;DHT22;3806;52.270;10.544;2023-11-19T14:20:09;13.60;99.90
7530;DHT22;3806;52.270;10.544;2023-11-19T14:22:43;13.60;99.90
7530;DHT22;3806;52.270;10.544;2023-11-19T14:25:09;13.60;99.90
7530;DHT22;3806;52.270;10.544;2023-11-19T14:27:39;13.50;99.90
7530;DHT22;3806;52.270;10.544;2023-11-19T14:30:12;13.50;99.90
7530;DHT22;3806;52.270;10.544;2023-11-19T14:32:39;13.50;99.90
7530;DHT22;3806;52.270;10.544;2023-11-19T14:35:08;13.40;99.90
7530;DHT22;3806;52.270;10.544;2023-11-19T14:37:33;13.40;99.90
7530;DHT22;3806;52.270;10.544;2023-11-19T14:39:59;13.40;99.90
7530;DHT22;3806;52.270;10.544;2023-11-19T14:42:25;13.30;99.90
7530;DHT22;3806;52.270;10.544;2023-11-19T14:44:52;13.30;99.90
7530;DHT22;3806;52.270;10.544;2023-11-19T14:47:26;13.30;99.90
7530;DHT22;3806;52.270;10.544;2023-11-19T14:49:52;13.20;99.90
7530;DHT22;3806;52.270;10.544;2023-11-19T14:52:17;13.20;99.90
7530;DHT22;3806;52.270;10.544;2023-11-19T14:54:43;13.20;99.90
7530;DHT22;3806;52.270;10.544;2023-11-19T14:57:08;13.20;99.90
7530;DHT22;3806;52.270;10.544;2023-11-19T14:59:35;13.10;99.90
7530;DHT22;3806;52.270;10.544;2023-11-19T15:02:00;13.10;99.90
7530;DHT22;3806;52.270;10.544;2023-11-19T15:04:26;13.00;99.90
7530;DHT22;3806;52.270;10.544;2023-11-19T15:06:52;13.00;99.90
7530;DHT22;3806;52.270;10.544;2023-11-19T15:09:18;12.90;99.90
7530;DHT22;3806;52.270;10.544;2023-11-19T15:11:46;12.90;99.90
7530;DHT22;3806;52.270;10.544;2023-11-19T15:14:13;12.90;99.90
7530;DHT22;3806;52.270;10.544;2023-11-19T15:16:42;12.90;99.90
7530;DHT22;3806;52.270;10.544;2023-11-19T15:19:08;12.80;99.90
7530;DHT22;3806;52.270;10.544;2023-11-19T15:21:34;12.90;99.90
7530;DHT22;3806;52.270;10.544;2023-11-19T15:24:00;12.90;99.90
7530;DHT22;3806;52.270;10.544;2023-11-19T15:26:26;12.80;99.90
7530;DHT22;3806;52.270;10.544;2023-11-19T15:28:51;12.80;99.90
7530;DHT22;3806;52.270;10.544;2023-11-19T15:31:22;12.80;99.90
7530;DHT22;3806;52.270;10.544;2023-11-19T15:33:47;12.80;99.90
7530;DHT22;3806;52.270;10.544;2023-11-19T15:36:13;12.80;99.90
7530;DHT22;3806;52.270;10.544;2023-11-19T15:38:39;12.80;99.90
7530;DHT22;3806;52.270;10.544;2023-11-19T15:41:05;12.80;99.90
7530;DHT22;3806;52.270;10.544;2023-11-19T15:43:32;12.80;99.90
7530;DHT22;3806;52.270;10.544;2023-11-19T15:45:59;12.80;99.90
7530;DHT22;3806;52.270;10.544;2023-11-19T15:48:26;12.80;99.90
7530;DHT22;3806;52.270;10.544;2023-11-19T15:50:52;12.80;99.90
7530;DHT22;3806;52.270;10.544;2023-11-19T15:53:18;12.80;99.90
7530;DHT22;3806;52.270;10.544;2023-11-19T15:55:44;12.80;99.90
7530;DHT22;3806;52.270;10.544;2023-11-19T15:58:10;12.80;99.90
7530;DHT22;3806;52.270;10.544;2023-11-19T16:00:37;12.80;99.90
7530;DHT22;3806;52.270;10.544;2023-11-19T16:03:02;12.80;99.90
7530;DHT22;3806;52.270;10.544;2023-11-19T16:05:28;12.80;99.90
7530;DHT22;3806;52.270;10.544;2023-11-19T16:07:54;12.80;99.90